createdAt,value
2023-04-12T00:01:55.602Z,99713.34
2023-04-12T00:04:58.680Z,99714.72
2023-04-12T00:08:03.337Z,99710.91
2023-04-12T00:11:06.245Z,99697.03
2023-04-12T00:14:08.485Z,99710.63
2023-04-12T00:17:11.884Z,99697.97
2023-04-12T00:20:16.706Z,99716.31
2023-04-12T00:23:19.381Z,99709.97
2023-04-12T00:26:25.609Z,99708.47
2023-04-12T00:29:29.625Z,99710.06
2023-04-12T00:32:32.016Z,99714.00
2023-04-12T00:35:34.817Z,99704.59
2023-04-12T00:38:36.940Z,99699.44
2023-04-12T00:41:39.307Z,99696.84
2023-04-12T00:44:41.513Z,99705.97
2023-04-12T00:47:44.088Z,99713.03
2023-04-12T00:50:46.683Z,99707.28
2023-04-12T00:53:49.251Z,99714.53
2023-04-12T00:56:52.091Z,99700.00
2023-04-12T00:59:54.745Z,99711.94
2023-04-12T01:02:58.865Z,99710.25
2023-04-12T01:06:10.538Z,99709.50
2023-04-12T01:09:23.470Z,99714.44
2023-04-12T01:12:35.712Z,99715.28
2023-04-12T01:15:41.395Z,99711.28
2023-04-12T01:18:50.471Z,99707.91
2023-04-12T01:22:02.529Z,99696.19
2023-04-12T01:25:24.192Z,99700.38
2023-04-12T01:28:33.867Z,99707.50
2023-04-12T01:31:37.105Z,99699.44
2023-04-12T01:34:40.620Z,99692.56
2023-04-12T01:37:43.912Z,99694.84
2023-04-12T01:40:46.232Z,99700.75
2023-04-12T01:43:48.901Z,99695.34
2023-04-12T01:46:51.842Z,99703.06
2023-04-12T01:50:11.580Z,99702.31
2023-04-12T01:53:17.001Z,99707.62
2023-04-12T01:56:20.328Z,99700.81
2023-04-12T01:59:24.352Z,99697.56
2023-04-12T02:02:27.248Z,99695.53
2023-04-12T02:05:29.804Z,99693.19
2023-04-12T02:08:31.973Z,99682.94
2023-04-12T02:11:34.713Z,99673.69
2023-04-12T02:14:37.514Z,99667.41
2023-04-12T02:17:41.003Z,99666.00
2023-04-12T02:20:44.613Z,99659.09
2023-04-12T02:23:46.991Z,99642.34
2023-04-12T02:26:52.414Z,99640.78
2023-04-12T02:29:55.022Z,99634.81
2023-04-12T02:32:58.627Z,99645.13
2023-04-12T02:36:04.557Z,99631.00
2023-04-12T02:39:07.873Z,99640.03
2023-04-12T02:42:10.750Z,99645.44
2023-04-12T02:45:14.239Z,99637.50
2023-04-12T02:48:17.320Z,99645.06
2023-04-12T02:51:20.770Z,99666.75
2023-04-12T02:54:23.273Z,99678.22
2023-04-12T02:57:26.412Z,99689.41
2023-04-12T03:00:28.814Z,99706.97
2023-04-12T03:03:32.377Z,99711.09
2023-04-12T03:06:35.740Z,99707.06
2023-04-12T03:09:38.823Z,99715.62
2023-04-12T03:12:41.233Z,99713.38
2023-04-12T03:15:47.836Z,99700.88
2023-04-12T03:18:50.694Z,99702.41
2023-04-12T03:21:55.003Z,99687.72
2023-04-12T03:24:57.858Z,99684.16
2023-04-12T03:28:04.231Z,99684.72
2023-04-12T03:31:07.952Z,99677.62
2023-04-12T03:34:11.449Z,99672.81
2023-04-12T03:37:14.667Z,99661.91
2023-04-12T03:40:17.569Z,99670.84
2023-04-12T03:43:20.493Z,99664.88
2023-04-12T03:46:22.972Z,99671.97
2023-04-12T03:49:25.961Z,99674.13
2023-04-12T03:52:28.382Z,99673.06
2023-04-12T03:55:30.385Z,99674.00
2023-04-12T03:58:36.434Z,99679.53
2023-04-12T04:01:41.472Z,99667.75
2023-04-12T04:04:45.173Z,99674.31
2023-04-12T04:07:47.927Z,99667.09
2023-04-12T04:10:50.878Z,99666.47
2023-04-12T04:13:53.451Z,99661.44
2023-04-12T04:16:57.145Z,99662.25
2023-04-12T04:19:59.559Z,99649.56
2023-04-12T04:23:03.820Z,99644.09
2023-04-12T04:26:10.611Z,99644.94
2023-04-12T04:29:14.595Z,99646.06
2023-04-12T04:32:16.672Z,99644.13
2023-04-12T04:35:19.918Z,99649.69
2023-04-12T04:38:26.269Z,99658.91
2023-04-12T04:41:30.584Z,99659.75
2023-04-12T04:44:36.104Z,99649.81
2023-04-12T04:47:39.828Z,99656.44
2023-04-12T04:50:42.341Z,99657.37
2023-04-12T04:53:46.530Z,99654.91
2023-04-12T04:56:49.479Z,99654.59
2023-04-12T04:59:52.164Z,99657.75
2023-04-12T05:02:54.569Z,99656.44
2023-04-12T05:05:57.571Z,99654.56
2023-04-12T05:09:01.767Z,99664.13
2023-04-12T05:12:04.656Z,99661.62
2023-04-12T05:15:11.505Z,99653.66
2023-04-12T05:18:15.312Z,99642.50
2023-04-12T05:21:17.321Z,99643.06
2023-04-12T05:24:19.860Z,99645.78
2023-04-12T05:27:22.475Z,99651.19
2023-04-12T05:30:26.217Z,99651.59
2023-04-12T05:33:29.264Z,99654.28
2023-04-12T05:36:33.704Z,99660.13
2023-04-12T05:39:37.903Z,99652.78
2023-04-12T05:42:42.472Z,99657.72
2023-04-12T05:45:45.436Z,99655.19
2023-04-12T05:48:48.326Z,99651.06
2023-04-12T05:51:51.774Z,99655.88
2023-04-12T05:54:54.759Z,99661.50
2023-04-12T05:57:58.867Z,99664.84
2023-04-12T06:01:02.114Z,99669.56
2023-04-12T06:04:06.719Z,99678.88
2023-04-12T06:07:09.986Z,99678.28
2023-04-12T06:10:14.543Z,99677.66
2023-04-12T06:13:17.097Z,99697.41
2023-04-12T06:16:19.686Z,99696.37
2023-04-12T06:19:22.075Z,99712.00
2023-04-12T06:22:25.982Z,99697.34
2023-04-12T06:25:28.212Z,99690.84
2023-04-12T06:28:31.675Z,99699.78
2023-04-12T06:31:33.774Z,99695.75
2023-04-12T06:34:36.828Z,99699.84
2023-04-12T06:37:39.425Z,99701.16
2023-04-12T06:40:54.473Z,99689.16
2023-04-12T06:43:56.448Z,99693.25
2023-04-12T06:46:59.121Z,99689.91
2023-04-12T06:50:01.601Z,99687.28
2023-04-12T06:53:03.972Z,99688.09
2023-04-12T06:56:06.560Z,99699.91
2023-04-12T06:59:11.639Z,99693.06
2023-04-12T07:02:14.068Z,99698.00
2023-04-12T07:05:16.745Z,99699.81
2023-04-12T07:08:18.701Z,99700.31
2023-04-12T07:11:22.746Z,99698.88
2023-04-12T07:14:25.500Z,99691.00
2023-04-12T07:17:28.073Z,99700.88
2023-04-12T07:20:30.150Z,99701.94
2023-04-12T07:23:32.729Z,99696.34
2023-04-12T07:26:34.714Z,99692.25
2023-04-12T07:29:37.416Z,99690.16
2023-04-12T07:32:39.527Z,99695.34
2023-04-12T07:35:42.504Z,99691.91
2023-04-12T07:38:44.609Z,99681.19
2023-04-12T07:41:48.370Z,99680.69
2023-04-12T07:44:50.428Z,99689.03
2023-04-12T07:47:52.922Z,99685.72
2023-04-12T07:50:58.356Z,99694.34
2023-04-12T07:54:04.266Z,99687.66
2023-04-12T07:57:08.025Z,99680.41
2023-04-12T08:00:12.051Z,99683.47
2023-04-12T08:03:16.991Z,99686.56
2023-04-12T08:06:19.913Z,99682.25
2023-04-12T08:09:22.077Z,99686.44
2023-04-12T08:12:24.758Z,99680.37
2023-04-12T08:15:27.624Z,99675.66
2023-04-12T08:18:30.871Z,99677.62
2023-04-12T08:21:34.972Z,99690.22
2023-04-12T08:24:38.244Z,99693.09
2023-04-12T08:27:42.493Z,99698.78
2023-04-12T08:30:45.128Z,99692.41
2023-04-12T08:33:47.165Z,99686.25
2023-04-12T08:37:01.333Z,99674.03
2023-04-12T08:40:19.219Z,99684.06
2023-04-12T08:43:39.512Z,99679.03
2023-04-12T08:46:58.646Z,99670.19
2023-04-12T08:50:09.731Z,99667.06
2023-04-12T08:53:19.707Z,99665.13
2023-04-12T08:56:22.891Z,99668.03
2023-04-12T08:59:27.211Z,99666.37
2023-04-12T09:02:30.535Z,99659.03
2023-04-12T09:05:33.663Z,99667.50
2023-04-12T09:12:08.281Z,99661.84
2023-04-12T09:15:15.392Z,99654.19
2023-04-12T09:18:18.936Z,99664.44
2023-04-12T09:21:21.884Z,99661.34
2023-04-12T09:24:24.709Z,99660.00
2023-04-12T09:27:30.104Z,99663.13
2023-04-12T09:30:41.306Z,99654.12
2023-04-12T09:33:46.317Z,99647.19
2023-04-12T09:36:51.245Z,99640.63
2023-04-12T09:40:06.229Z,99637.47
2023-04-12T09:43:08.867Z,99639.06
2023-04-12T09:46:13.125Z,99633.41
2023-04-12T09:49:16.152Z,99621.69
2023-04-12T09:52:19.092Z,99628.66
2023-04-12T09:55:21.877Z,99635.22
2023-04-12T09:58:25.311Z,99624.69
2023-04-12T10:01:27.863Z,99626.47
2023-04-12T10:04:31.382Z,99625.84
2023-04-12T10:07:36.469Z,99624.09
2023-04-12T10:10:39.041Z,99627.59
2023-04-12T10:13:42.392Z,99629.34
2023-04-12T10:16:45.241Z,99625.47
2023-04-12T10:19:47.931Z,99607.34
2023-04-12T10:22:52.850Z,99611.53
2023-04-12T10:25:57.130Z,99612.44
2023-04-12T10:29:19.496Z,99614.28
2023-04-12T10:32:26.229Z,99614.06
2023-04-12T10:35:53.693Z,99608.56
2023-04-12T10:39:16.407Z,99602.94
2023-04-12T10:42:29.002Z,99601.75
2023-04-12T10:45:31.333Z,99588.44
2023-04-12T10:48:38.335Z,99589.97
2023-04-12T10:51:40.922Z,99577.06
2023-04-12T10:54:43.666Z,99586.72
2023-04-12T10:57:47.655Z,99589.97
2023-04-12T11:00:59.553Z,99579.34
2023-04-12T11:04:08.852Z,99582.87
2023-04-12T11:07:12.167Z,99584.50
2023-04-12T11:10:15.731Z,99572.91
2023-04-12T11:13:18.206Z,99573.09
2023-04-12T11:16:20.813Z,99575.72
2023-04-12T11:19:23.904Z,99571.78
2023-04-12T11:22:29.959Z,99564.88
2023-04-12T11:25:32.651Z,99566.16
2023-04-12T11:28:35.543Z,99561.81
2023-04-12T11:31:38.426Z,99567.28
2023-04-12T11:34:41.259Z,99558.69
2023-04-12T11:37:44.296Z,99554.81
2023-04-12T11:40:48.125Z,99559.94
2023-04-12T11:43:51.205Z,99561.56
2023-04-12T11:46:54.634Z,99552.97
2023-04-12T11:49:58.859Z,99555.16
2023-04-12T11:53:12.347Z,99554.28
2023-04-12T11:56:14.788Z,99555.75
2023-04-12T11:59:17.181Z,99544.91
2023-04-12T12:02:23.812Z,99544.81
2023-04-12T12:05:30.929Z,99534.75
2023-04-12T12:08:35.687Z,99539.88
2023-04-12T12:11:39.049Z,99525.69
2023-04-12T12:14:42.351Z,99523.84
2023-04-12T12:17:45.859Z,99524.19
2023-04-12T12:20:49.345Z,99507.56
2023-04-12T12:23:52.397Z,99512.78
2023-04-12T12:26:54.781Z,99503.63
2023-04-12T12:30:01.208Z,99500.44
2023-04-12T12:33:03.379Z,99497.81
2023-04-12T12:36:06.641Z,99497.13
2023-04-12T12:39:12.750Z,99489.69
2023-04-12T12:42:15.451Z,99487.03
2023-04-12T12:45:19.009Z,99493.47
2023-04-12T12:48:21.657Z,99483.88
2023-04-12T12:51:23.925Z,99489.19
2023-04-12T12:57:42.558Z,99483.44
2023-04-12T13:00:48.298Z,99485.88
2023-04-12T13:03:50.748Z,99480.53
2023-04-12T13:06:53.599Z,99487.16
2023-04-12T13:09:56.120Z,99484.13
2023-04-12T13:12:59.222Z,99479.19
2023-04-12T13:16:02.083Z,99482.03
2023-04-12T13:19:04.740Z,99466.75
2023-04-12T13:22:08.306Z,99473.31
2023-04-12T13:25:11.057Z,99471.72
2023-04-12T13:28:17.024Z,99467.00
2023-04-12T13:31:20.772Z,99461.91
2023-04-12T13:34:23.126Z,99464.12
2023-04-12T13:37:25.553Z,99458.06
2023-04-12T13:40:27.598Z,99462.31
2023-04-12T13:43:30.031Z,99447.66
2023-04-12T13:46:32.501Z,99442.41
2023-04-12T13:49:35.118Z,99440.00
2023-04-12T13:52:37.518Z,99444.81
2023-04-12T13:55:40.895Z,99447.16
2023-04-12T13:58:43.542Z,99439.84
2023-04-12T14:01:46.682Z,99443.06
2023-04-12T14:04:50.853Z,99440.94
2023-04-12T14:08:01.907Z,99443.91
2023-04-12T14:11:05.449Z,99442.88
2023-04-12T14:14:07.710Z,99436.06
2023-04-12T14:17:10.262Z,99437.47
2023-04-12T14:20:12.815Z,99432.62
2023-04-12T14:23:17.718Z,99416.06
2023-04-12T14:26:19.951Z,99431.31
2023-04-12T14:29:31.820Z,99433.19
2023-04-12T15:03:05.645Z,99422.53
2023-04-12T15:06:16.426Z,99420.72
2023-04-12T15:09:18.814Z,99430.41
2023-04-12T15:12:23.250Z,99419.00
2023-04-12T15:15:27.314Z,99427.44
2023-04-12T15:18:31.664Z,99423.75
2023-04-12T15:21:34.129Z,99429.47
2023-04-12T15:24:37.276Z,99427.06
2023-04-12T15:27:43.848Z,99422.22
2023-04-12T15:30:46.822Z,99423.69
2023-04-12T15:33:50.493Z,99416.78
2023-04-12T15:36:52.847Z,99418.69
2023-04-12T15:39:55.040Z,99433.88
2023-04-12T15:42:57.378Z,99424.94
2023-04-12T15:46:01.868Z,99424.84
2023-04-12T15:49:04.429Z,99426.00
2023-04-12T15:52:06.566Z,99421.03
2023-04-12T15:55:12.214Z,99421.72
2023-04-12T15:58:14.702Z,99422.19
2023-04-12T16:01:17.433Z,99418.19
2023-04-12T16:04:19.894Z,99420.91
2023-04-12T16:07:22.442Z,99430.78
2023-04-12T16:10:24.805Z,99421.13
2023-04-12T16:13:27.316Z,99423.63
2023-04-12T16:16:29.622Z,99422.34
2023-04-12T16:19:32.262Z,99422.81
2023-04-12T16:22:34.610Z,99415.09
2023-04-12T16:25:36.638Z,99412.56
2023-04-12T16:28:39.076Z,99397.00
2023-04-12T16:31:41.159Z,99406.13
2023-04-12T16:34:44.595Z,99403.44
2023-04-12T16:37:47.648Z,99405.97
2023-04-12T16:40:49.895Z,99401.03
2023-04-12T16:43:53.877Z,99399.25
2023-04-12T16:46:58.317Z,99397.44
2023-04-12T16:50:00.627Z,99392.50
2023-04-12T16:53:03.785Z,99396.16
2023-04-12T16:56:05.998Z,99397.97
2023-04-12T16:59:09.726Z,99399.19
2023-04-12T17:02:12.658Z,99398.44
2023-04-12T17:05:17.886Z,99406.03
2023-04-12T17:08:19.884Z,99402.56
2023-04-12T17:11:22.782Z,99400.09
2023-04-12T17:14:27.998Z,99399.81
2023-04-12T17:17:30.266Z,99398.41
2023-04-12T17:20:32.608Z,99390.94
2023-04-12T17:23:36.708Z,99395.75
2023-04-12T17:26:40.332Z,99401.09
2023-04-12T17:29:42.691Z,99401.88
2023-04-12T17:32:48.357Z,99405.53
2023-04-12T17:35:50.732Z,99399.66
2023-04-12T17:38:54.224Z,99388.50
2023-04-12T17:41:57.108Z,99392.91
2023-04-12T17:44:59.124Z,99390.06
2023-04-12T17:48:01.376Z,99391.09
2023-04-12T17:51:06.561Z,99393.41
2023-04-12T17:54:09.095Z,99393.34
2023-04-12T17:57:11.365Z,99394.06
2023-04-12T18:00:15.173Z,99406.28
2023-04-12T18:03:19.132Z,99396.75
2023-04-12T18:06:23.009Z,99401.53
2023-04-12T18:09:26.260Z,99406.78
2023-04-12T18:12:28.781Z,99406.69
2023-04-12T18:15:31.827Z,99404.56
2023-04-12T18:18:34.234Z,99402.19
2023-04-12T18:21:37.594Z,99396.59
2023-04-12T18:24:40.216Z,99388.63
2023-04-12T18:27:46.207Z,99397.13
2023-04-12T18:30:48.884Z,99396.81
2023-04-12T18:33:50.875Z,99394.94
2023-04-12T18:36:53.297Z,99404.72
2023-04-12T18:39:55.589Z,99408.78
2023-04-12T18:42:59.566Z,99407.22
2023-04-12T18:46:01.630Z,99405.94
2023-04-12T18:49:06.695Z,99420.47
2023-04-12T18:52:08.824Z,99415.00
2023-04-12T18:55:11.453Z,99421.53
2023-04-12T18:58:13.422Z,99416.88
2023-04-12T19:01:16.131Z,99422.25
2023-04-12T19:04:18.461Z,99425.69
2023-04-12T19:07:20.867Z,99419.53
2023-04-12T19:10:28.187Z,99432.72
2023-04-12T19:13:30.785Z,99420.06
2023-04-12T19:16:32.842Z,99423.16
2023-04-12T19:19:35.300Z,99418.75
2023-04-12T19:22:37.253Z,99422.91
2023-04-12T19:25:39.631Z,99426.22
2023-04-12T19:28:43.264Z,99427.75
2023-04-12T19:31:47.470Z,99429.31
2023-04-12T19:34:49.688Z,99432.16
2023-04-12T19:37:54.662Z,99428.44
2023-04-12T19:40:56.748Z,99424.66
2023-04-12T19:43:59.777Z,99422.56
2023-04-12T19:47:02.356Z,99420.66
2023-04-12T19:50:05.339Z,99419.41
2023-04-12T19:53:07.874Z,99424.25
2023-04-12T19:56:12.830Z,99419.63
2023-04-12T19:59:15.515Z,99414.19
2023-04-12T20:02:19.482Z,99416.66
2023-04-12T20:05:23.212Z,99403.91
2023-04-12T20:08:29.589Z,99404.91
2023-04-12T20:11:32.099Z,99398.00
2023-04-12T20:14:36.803Z,99400.34
2023-04-12T20:17:40.885Z,99403.91
2023-04-12T20:20:44.958Z,99404.75
2023-04-12T20:23:51.528Z,99390.56
2023-04-12T20:26:53.551Z,99394.78
2023-04-12T20:29:55.968Z,99393.09
2023-04-12T20:32:58.704Z,99396.44
2023-04-12T20:36:01.377Z,99398.22
2023-04-12T20:39:05.431Z,99407.47
2023-04-12T20:42:08.581Z,99407.25
2023-04-12T20:45:11.536Z,99407.06
2023-04-12T20:48:13.932Z,99401.69
2023-04-12T20:51:18.007Z,99396.34
2023-04-12T20:54:24.344Z,99387.91
2023-04-12T20:57:27.579Z,99386.59
2023-04-12T21:00:31.184Z,99383.50
2023-04-12T21:03:38.372Z,99386.16
2023-04-12T21:06:41.565Z,99370.41
2023-04-12T21:09:43.642Z,99373.50
2023-04-12T21:12:47.113Z,99368.22
2023-04-12T21:15:50.304Z,99377.41
2023-04-12T21:18:53.403Z,99369.19
2023-04-12T21:21:55.537Z,99379.22
2023-04-12T21:24:59.092Z,99376.69
2023-04-12T21:28:01.137Z,99384.31
2023-04-12T21:31:03.997Z,99372.31
2023-04-12T21:34:07.579Z,99380.16
2023-04-12T21:37:10.870Z,99376.91
2023-04-12T21:40:13.544Z,99370.13
2023-04-12T21:43:17.112Z,99369.94
2023-04-12T21:46:19.472Z,99368.00
2023-04-12T21:49:22.129Z,99357.69
2023-04-12T21:52:24.651Z,99351.28
2023-04-12T21:55:28.357Z,99345.44
2023-04-12T21:58:32.354Z,99346.19
2023-04-12T22:01:34.769Z,99344.63
2023-04-12T22:04:38.240Z,99340.28
2023-04-12T22:07:40.952Z,99337.47
2023-04-12T22:10:43.414Z,99341.41
2023-04-12T22:13:46.161Z,99330.16
2023-04-12T22:16:49.788Z,99332.66
2023-04-12T22:19:53.186Z,99332.53
2023-04-12T22:22:57.252Z,99343.16
2023-04-12T22:25:59.364Z,99338.19
2023-04-12T22:29:01.799Z,99329.31
2023-04-12T22:32:03.926Z,99331.94
2023-04-12T22:35:08.745Z,99332.03
2023-04-12T22:38:14.696Z,99328.59
2023-04-12T22:41:17.239Z,99323.28
2023-04-12T22:44:22.202Z,99322.84
2023-04-12T22:47:28.788Z,99329.72
2023-04-12T22:50:31.011Z,99316.56
2023-04-12T22:53:33.422Z,99320.22
2023-04-12T22:56:44.930Z,99332.44
2023-04-12T22:59:47.358Z,99325.03
2023-04-12T23:02:50.329Z,99328.97
2023-04-12T23:05:52.914Z,99320.22
2023-04-12T23:08:54.921Z,99319.56
2023-04-12T23:11:57.302Z,99316.50
2023-04-12T23:15:00.139Z,99325.53
2023-04-12T23:18:03.132Z,99316.13
2023-04-12T23:21:05.524Z,99319.56
2023-04-12T23:24:08.506Z,99312.12
2023-04-12T23:27:10.562Z,99316.72
2023-04-12T23:30:13.480Z,99318.53
2023-04-12T23:33:18.171Z,99311.09
2023-04-12T23:36:22.001Z,99304.84
2023-04-12T23:39:24.004Z,99302.50
2023-04-12T23:42:26.261Z,99298.38
2023-04-12T23:45:28.300Z,99297.06
2023-04-12T23:48:32.291Z,99298.63
2023-04-12T23:51:34.599Z,99299.28
2023-04-12T23:54:37.016Z,99278.38
2023-04-12T23:57:39.271Z,99285.94
